メインページ
METAR-TAF:

METAR-TAF

空港 :

ナッソー, バハマ

リンデン・ピンドリング国際空港

緯度: 25-03N, 経度: 077-28W, 海抜: 3m

現時点の気象観測

当レポートは53分前の11:00(UTC)に作成
の風 9kt
気温 26°C
湿度 65%
気圧 1012 hPa
視程10km以上
高度2000ftの千切れ雲あり
高度10000ftの曇り

METAR: MYNN 231100Z 09009KT 9999 BKN020 OVC100 26/19 A2987

時間: 07:53 (11:53 UTC)

予報

当レポートは2時間23分前の09:30(UTC)に作成
予報は23日の 12時(UTC)から 24日の 12時(UTC)まで有効
南東の風 10kt
視程10km以上
高度1800ftの雲は散在している
高度8000ftの千切れ雲あり
確率 30% :
23日の 15時(UTC)から 23日の 19時(UTC)まで一時的に
視程: 7000m
高度1800ftの雲はほとんどない, 積乱雲.
高度2000ftの千切れ雲あり
高度12000ftの千切れ雲あり

TAF: MYNN 230930Z 2312/2412 13010KT 9999 SCT018 BKN080 PROB30 TEMPO 2315/2319 7000 FEW018CB BKN020 BKN120

4,000以上の空港の気象観測と天気予報(METAR報とTAF報)

利用可能な観測所は地図上に黄色い丸と赤い丸で示す。

丸の上にカーソルを重ねると観測所名を参照できる。

次にクリックすると気象観測と天気予報を参照できる。

マップの切り替え:黒色「×」印の緑ボタンをクリックして拡大、「-」印の緑ボタンをクリックして縮小、緑色の三角印をクリックして隣りの地図に切り替え


METAR-TAF: